sensor_id;sensor_type;location;lat;lon;timestamp;P1;durP1;ratioP1;P2;durP2;ratioP2
73697;SDS011;62004;42.566;23.164;2023-03-25T00:01:31;81.55;;;27.40;;
73697;SDS011;62004;42.566;23.164;2023-03-25T00:03:57;82.50;;;28.00;;
73697;SDS011;62004;42.566;23.164;2023-03-25T00:06:22;81.50;;;27.60;;
73697;SDS011;62004;42.566;23.164;2023-03-25T00:08:47;82.33;;;27.87;;
73697;SDS011;62004;42.566;23.164;2023-03-25T00:11:12;81.07;;;27.67;;
73697;SDS011;62004;42.566;23.164;2023-03-25T00:13:38;81.93;;;28.20;;
73697;SDS011;62004;42.566;23.164;2023-03-25T00:16:04;80.78;;;26.88;;
73697;SDS011;62004;42.566;23.164;2023-03-25T00:18:31;80.70;;;27.10;;
73697;SDS011;62004;42.566;23.164;2023-03-25T00:20:58;81.43;;;28.25;;
73697;SDS011;62004;42.566;23.164;2023-03-25T00:23:23;81.18;;;27.45;;
73697;SDS011;62004;42.566;23.164;2023-03-25T00:25:48;80.47;;;27.00;;
73697;SDS011;62004;42.566;23.164;2023-03-25T00:28:16;81.30;;;27.95;;
73697;SDS011;62004;42.566;23.164;2023-03-25T00:30:43;81.72;;;28.77;;
73697;SDS011;62004;42.566;23.164;2023-03-25T00:33:08;81.03;;;27.45;;
73697;SDS011;62004;42.566;23.164;2023-03-25T00:35:38;81.38;;;27.88;;
73697;SDS011;62004;42.566;23.164;2023-03-25T00:38:03;81.22;;;27.20;;
73697;SDS011;62004;42.566;23.164;2023-03-25T00:40:31;81.50;;;27.98;;
73697;SDS011;62004;42.566;23.164;2023-03-25T00:42:59;81.15;;;27.58;;
73697;SDS011;62004;42.566;23.164;2023-03-25T00:45:24;81.45;;;27.38;;
73697;SDS011;62004;42.566;23.164;2023-03-25T00:47:50;81.13;;;27.47;;
73697;SDS011;62004;42.566;23.164;2023-03-25T00:50:15;80.80;;;27.05;;
73697;SDS011;62004;42.566;23.164;2023-03-25T00:52:40;80.90;;;27.23;;
73697;SDS011;62004;42.566;23.164;2023-03-25T00:55:06;81.20;;;27.50;;
73697;SDS011;62004;42.566;23.164;2023-03-25T00:57:32;81.80;;;28.48;;
73697;SDS011;62004;42.566;23.164;2023-03-25T00:59:57;81.22;;;27.63;;
73697;SDS011;62004;42.566;23.164;2023-03-25T01:02:22;80.83;;;27.07;;
73697;SDS011;62004;42.566;23.164;2023-03-25T01:04:48;81.45;;;27.73;;
73697;SDS011;62004;42.566;23.164;2023-03-25T01:07:17;81.10;;;27.23;;
73697;SDS011;62004;42.566;23.164;2023-03-25T01:09:42;81.13;;;27.40;;
73697;SDS011;62004;42.566;23.164;2023-03-25T01:12:10;81.57;;;28.17;;
73697;SDS011;62004;42.566;23.164;2023-03-25T01:14:35;81.50;;;27.57;;
73697;SDS011;62004;42.566;23.164;2023-03-25T01:17:01;81.13;;;27.25;;
73697;SDS011;62004;42.566;23.164;2023-03-25T01:19:26;81.60;;;28.00;;
73697;SDS011;62004;42.566;23.164;2023-03-25T01:21:51;81.23;;;27.50;;
73697;SDS011;62004;42.566;23.164;2023-03-25T01:24:16;81.37;;;27.53;;
73697;SDS011;62004;42.566;23.164;2023-03-25T01:26:42;80.80;;;27.07;;
73697;SDS011;62004;42.566;23.164;2023-03-25T01:29:08;80.93;;;27.08;;
73697;SDS011;62004;42.566;23.164;2023-03-25T01:36:44;81.38;;;28.02;;
73697;SDS011;62004;42.566;23.164;2023-03-25T01:39:13;81.55;;;27.38;;
73697;SDS011;62004;42.566;23.164;2023-03-25T01:41:41;81.50;;;27.70;;
73697;SDS011;62004;42.566;23.164;2023-03-25T01:44:07;81.43;;;27.27;;
73697;SDS011;62004;42.566;23.164;2023-03-25T01:46:37;81.90;;;28.45;;
73697;SDS011;62004;42.566;23.164;2023-03-25T01:49:03;81.50;;;27.33;;
73697;SDS011;62004;42.566;23.164;2023-03-25T01:51:30;80.93;;;27.05;;
73697;SDS011;62004;42.566;23.164;2023-03-25T01:53:56;81.47;;;27.98;;
73697;SDS011;62004;42.566;23.164;2023-03-25T01:56:23;81.47;;;27.40;;
73697;SDS011;62004;42.566;23.164;2023-03-25T01:58:49;81.25;;;27.00;;
73697;SDS011;62004;42.566;23.164;2023-03-25T02:01:16;81.10;;;27.25;;
73697;SDS011;62004;42.566;23.164;2023-03-25T02:03:45;81.22;;;27.05;;
73697;SDS011;62004;42.566;23.164;2023-03-25T02:08:40;81.30;;;27.13;;
73697;SDS011;62004;42.566;23.164;2023-03-25T02:11:06;81.57;;;27.35;;
73697;SDS011;62004;42.566;23.164;2023-03-25T02:13:32;80.68;;;26.70;;
73697;SDS011;62004;42.566;23.164;2023-03-25T02:21:51;81.32;;;26.90;;
73697;SDS011;62004;42.566;23.164;2023-03-25T02:26:26;81.25;;;27.50;;
73697;SDS011;62004;42.566;23.164;2023-03-25T02:29:25;81.20;;;27.08;;
73697;SDS011;62004;42.566;23.164;2023-03-25T02:34:26;81.40;;;26.83;;
73697;SDS011;62004;42.566;23.164;2023-03-25T02:42:24;81.43;;;27.63;;
73697;SDS011;62004;42.566;23.164;2023-03-25T02:45:01;81.25;;;26.88;;
73697;SDS011;62004;42.566;23.164;2023-03-25T02:47:33;81.18;;;26.67;;
73697;SDS011;62004;42.566;23.164;2023-03-25T02:50:04;81.65;;;27.98;;
73697;SDS011;62004;42.566;23.164;2023-03-25T02:52:38;81.57;;;27.30;;
73697;SDS011;62004;42.566;23.164;2023-03-25T02:55:05;81.40;;;27.65;;
73697;SDS011;62004;42.566;23.164;2023-03-25T02:57:34;81.10;;;26.85;;
73697;SDS011;62004;42.566;23.164;2023-03-25T03:00:02;81.47;;;27.60;;
73697;SDS011;62004;42.566;23.164;2023-03-25T03:02:34;81.00;;;26.75;;
73697;SDS011;62004;42.566;23.164;2023-03-25T03:05:00;81.15;;;27.10;;
73697;SDS011;62004;42.566;23.164;2023-03-25T03:07:34;81.47;;;27.23;;
73697;SDS011;62004;42.566;23.164;2023-03-25T03:10:24;80.68;;;26.38;;
73697;SDS011;62004;42.566;23.164;2023-03-25T03:15:36;80.57;;;26.08;;
73697;SDS011;62004;42.566;23.164;2023-03-25T03:24:08;80.28;;;25.58;;
73697;SDS011;62004;42.566;23.164;2023-03-25T03:26:08;80.15;;;25.55;;
73697;SDS011;62004;42.566;23.164;2023-03-25T03:28:45;80.00;;;25.90;;
73697;SDS011;62004;42.566;23.164;2023-03-25T03:31:22;79.90;;;25.65;;
73697;SDS011;62004;42.566;23.164;2023-03-25T03:33:51;79.93;;;25.25;;
73697;SDS011;62004;42.566;23.164;2023-03-25T03:36:18;80.30;;;25.95;;
73697;SDS011;62004;42.566;23.164;2023-03-25T03:38:46;80.25;;;26.08;;
73697;SDS011;62004;42.566;23.164;2023-03-25T03:41:13;80.07;;;25.33;;
73697;SDS011;62004;42.566;23.164;2023-03-25T03:43:47;79.78;;;25.23;;
73697;SDS011;62004;42.566;23.164;2023-03-25T03:46:18;79.93;;;24.85;;
73697;SDS011;62004;42.566;23.164;2023-03-25T03:48:45;79.32;;;24.67;;
73697;SDS011;62004;42.566;23.164;2023-03-25T03:51:16;80.00;;;24.73;;
73697;SDS011;62004;42.566;23.164;2023-03-25T03:53:57;80.18;;;24.92;;
73697;SDS011;62004;42.566;23.164;2023-03-25T03:58:50;80.03;;;24.80;;
73697;SDS011;62004;42.566;23.164;2023-03-25T04:01:30;79.93;;;24.67;;
73697;SDS011;62004;42.566;23.164;2023-03-25T04:04:02;80.20;;;24.92;;
73697;SDS011;62004;42.566;23.164;2023-03-25T04:11:22;79.88;;;24.60;;
73697;SDS011;62004;42.566;23.164;2023-03-25T04:13:49;80.30;;;25.23;;
73697;SDS011;62004;42.566;23.164;2023-03-25T04:16:16;79.97;;;24.77;;
73697;SDS011;62004;42.566;23.164;2023-03-25T04:18:41;80.30;;;24.75;;
73697;SDS011;62004;42.566;23.164;2023-03-25T04:21:07;79.88;;;24.67;;
73697;SDS011;62004;42.566;23.164;2023-03-25T04:23:33;80.18;;;25.27;;
73697;SDS011;62004;42.566;23.164;2023-03-25T04:26:01;80.25;;;25.30;;
73697;SDS011;62004;42.566;23.164;2023-03-25T04:28:28;80.03;;;25.65;;
73697;SDS011;62004;42.566;23.164;2023-03-25T04:30:53;79.78;;;24.83;;
73697;SDS011;62004;42.566;23.164;2023-03-25T04:33:24;79.28;;;24.58;;
73697;SDS011;62004;42.566;23.164;2023-03-25T04:35:49;79.70;;;25.73;;
73697;SDS011;62004;42.566;23.164;2023-03-25T04:38:15;80.15;;;25.60;;
73697;SDS011;62004;42.566;23.164;2023-03-25T04:40:42;79.57;;;25.17;;
73697;SDS011;62004;42.566;23.164;2023-03-25T04:43:11;80.07;;;25.90;;
73697;SDS011;62004;42.566;23.164;2023-03-25T04:45:36;80.07;;;26.20;;
73697;SDS011;62004;42.566;23.164;2023-03-25T04:48:01;79.63;;;25.50;;
73697;SDS011;62004;42.566;23.164;2023-03-25T04:50:30;79.47;;;25.45;;
73697;SDS011;62004;42.566;23.164;2023-03-25T04:52:56;80.22;;;25.77;;
73697;SDS011;62004;42.566;23.164;2023-03-25T04:55:22;79.97;;;25.50;;
73697;SDS011;62004;42.566;23.164;2023-03-25T04:57:48;80.13;;;25.88;;
73697;SDS011;62004;42.566;23.164;2023-03-25T05:00:14;79.80;;;25.35;;
73697;SDS011;62004;42.566;23.164;2023-03-25T05:02:47;79.70;;;24.92;;
73697;SDS011;62004;42.566;23.164;2023-03-25T05:05:13;80.00;;;25.38;;
73697;SDS011;62004;42.566;23.164;2023-03-25T05:07:46;80.38;;;25.60;;
73697;SDS011;62004;42.566;23.164;2023-03-25T05:10:13;80.07;;;25.33;;
73697;SDS011;62004;42.566;23.164;2023-03-25T05:12:38;79.97;;;25.45;;
73697;SDS011;62004;42.566;23.164;2023-03-25T05:15:04;79.95;;;25.85;;
73697;SDS011;62004;42.566;23.164;2023-03-25T05:17:30;81.10;;;28.10;;
73697;SDS011;62004;42.566;23.164;2023-03-25T05:19:55;81.20;;;27.38;;
73697;SDS011;62004;42.566;23.164;2023-03-25T05:22:21;81.67;;;28.60;;
73697;SDS011;62004;42.566;23.164;2023-03-25T05:24:47;81.53;;;28.00;;
73697;SDS011;62004;42.566;23.164;2023-03-25T05:27:12;81.97;;;28.07;;
73697;SDS011;62004;42.566;23.164;2023-03-25T05:29:37;83.80;;;29.97;;
73697;SDS011;62004;42.566;23.164;2023-03-25T05:32:03;83.47;;;28.50;;
73697;SDS011;62004;42.566;23.164;2023-03-25T05:34:28;83.90;;;28.60;;
73697;SDS011;62004;42.566;23.164;2023-03-25T05:36:54;84.97;;;29.48;;
73697;SDS011;62004;42.566;23.164;2023-03-25T05:39:19;85.67;;;29.57;;
73697;SDS011;62004;42.566;23.164;2023-03-25T05:41:44;87.63;;;30.77;;
73697;SDS011;62004;42.566;23.164;2023-03-25T05:44:10;89.43;;;30.42;;
73697;SDS011;62004;42.566;23.164;2023-03-25T05:46:38;89.90;;;29.38;;
73697;SDS011;62004;42.566;23.164;2023-03-25T05:49:04;92.07;;;29.95;;
73697;SDS011;62004;42.566;23.164;2023-03-25T05:51:29;93.97;;;29.23;;
73697;SDS011;62004;42.566;23.164;2023-03-25T05:54:01;95.53;;;29.85;;
73697;SDS011;62004;42.566;23.164;2023-03-25T05:56:26;95.75;;;29.75;;
73697;SDS011;62004;42.566;23.164;2023-03-25T05:58:52;97.00;;;30.17;;
73697;SDS011;62004;42.566;23.164;2023-03-25T06:01:18;97.87;;;30.30;;
73697;SDS011;62004;42.566;23.164;2023-03-25T06:03:45;97.35;;;29.85;;
73697;SDS011;62004;42.566;23.164;2023-03-25T06:06:11;99.55;;;30.52;;
73697;SDS011;62004;42.566;23.164;2023-03-25T06:08:43;100.47;;;31.13;;
73697;SDS011;62004;42.566;23.164;2023-03-25T06:11:08;100.15;;;30.63;;
73697;SDS011;62004;42.566;23.164;2023-03-25T06:13:34;99.53;;;30.40;;
73697;SDS011;62004;42.566;23.164;2023-03-25T06:16:02;100.75;;;30.67;;
73697;SDS011;62004;42.566;23.164;2023-03-25T06:18:27;100.85;;;30.60;;
73697;SDS011;62004;42.566;23.164;2023-03-25T06:20:52;102.22;;;33.50;;
73697;SDS011;62004;42.566;23.164;2023-03-25T06:23:21;103.30;;;33.45;;
73697;SDS011;62004;42.566;23.164;2023-03-25T06:25:48;104.53;;;32.97;;
73697;SDS011;62004;42.566;23.164;2023-03-25T06:28:13;105.88;;;33.08;;
73697;SDS011;62004;42.566;23.164;2023-03-25T06:30:42;107.07;;;33.28;;
73697;SDS011;62004;42.566;23.164;2023-03-25T06:33:07;107.22;;;33.35;;
73697;SDS011;62004;42.566;23.164;2023-03-25T06:35:34;107.32;;;33.03;;
73697;SDS011;62004;42.566;23.164;2023-03-25T06:38:00;110.18;;;33.88;;
73697;SDS011;62004;42.566;23.164;2023-03-25T06:40:25;110.00;;;31.93;;
73697;SDS011;62004;42.566;23.164;2023-03-25T06:42:50;111.37;;;33.30;;
73697;SDS011;62004;42.566;23.164;2023-03-25T06:45:15;116.10;;;34.07;;
73697;SDS011;62004;42.566;23.164;2023-03-25T06:47:41;117.00;;;33.87;;
73697;SDS011;62004;42.566;23.164;2023-03-25T06:50:06;120.43;;;33.43;;
73697;SDS011;62004;42.566;23.164;2023-03-25T06:52:32;119.88;;;35.00;;
73697;SDS011;62004;42.566;23.164;2023-03-25T06:54:57;122.27;;;34.30;;
73697;SDS011;62004;42.566;23.164;2023-03-25T06:57:22;123.47;;;34.47;;
73697;SDS011;62004;42.566;23.164;2023-03-25T06:59:47;122.07;;;33.90;;
73697;SDS011;62004;42.566;23.164;2023-03-25T07:02:13;126.25;;;33.45;;
73697;SDS011;62004;42.566;23.164;2023-03-25T07:04:39;123.50;;;33.25;;
73697;SDS011;62004;42.566;23.164;2023-03-25T07:07:05;123.18;;;32.22;;
73697;SDS011;62004;42.566;23.164;2023-03-25T07:09:30;122.67;;;33.50;;
73697;SDS011;62004;42.566;23.164;2023-03-25T07:11:55;125.05;;;35.30;;
73697;SDS011;62004;42.566;23.164;2023-03-25T07:14:21;124.78;;;32.83;;
73697;SDS011;62004;42.566;23.164;2023-03-25T07:16:46;129.87;;;33.70;;
73697;SDS011;62004;42.566;23.164;2023-03-25T07:19:11;132.47;;;33.27;;
73697;SDS011;62004;42.566;23.164;2023-03-25T07:21:36;131.53;;;33.67;;
73697;SDS011;62004;42.566;23.164;2023-03-25T07:24:02;127.20;;;32.93;;
73697;SDS011;62004;42.566;23.164;2023-03-25T07:26:27;122.10;;;33.13;;
73697;SDS011;62004;42.566;23.164;2023-03-25T07:28:52;119.77;;;31.53;;
73697;SDS011;62004;42.566;23.164;2023-03-25T07:31:17;117.63;;;31.43;;
73697;SDS011;62004;42.566;23.164;2023-03-25T07:33:43;115.43;;;32.03;;
73697;SDS011;62004;42.566;23.164;2023-03-25T07:36:09;112.70;;;31.47;;
73697;SDS011;62004;42.566;23.164;2023-03-25T07:38:35;110.10;;;31.63;;
73697;SDS011;62004;42.566;23.164;2023-03-25T07:41:07;111.78;;;32.70;;
73697;SDS011;62004;42.566;23.164;2023-03-25T07:43:33;109.15;;;30.50;;
73697;SDS011;62004;42.566;23.164;2023-03-25T07:45:58;108.07;;;29.20;;
73697;SDS011;62004;42.566;23.164;2023-03-25T07:48:24;108.37;;;30.10;;
73697;SDS011;62004;42.566;23.164;2023-03-25T07:50:50;108.05;;;29.98;;
73697;SDS011;62004;42.566;23.164;2023-03-25T07:53:15;108.65;;;30.13;;
73697;SDS011;62004;42.566;23.164;2023-03-25T07:55:40;108.20;;;30.30;;
73697;SDS011;62004;42.566;23.164;2023-03-25T07:58:05;108.43;;;30.40;;
73697;SDS011;62004;42.566;23.164;2023-03-25T08:00:31;108.33;;;30.70;;
73697;SDS011;62004;42.566;23.164;2023-03-25T08:02:56;107.80;;;30.53;;
73697;SDS011;62004;42.566;23.164;2023-03-25T08:05:21;106.53;;;29.17;;
73697;SDS011;62004;42.566;23.164;2023-03-25T08:07:47;105.40;;;29.37;;
73697;SDS011;62004;42.566;23.164;2023-03-25T08:10:12;104.75;;;30.20;;
73697;SDS011;62004;42.566;23.164;2023-03-25T08:12:41;102.85;;;30.33;;
73697;SDS011;62004;42.566;23.164;2023-03-25T08:15:07;100.60;;;30.85;;
73697;SDS011;62004;42.566;23.164;2023-03-25T08:17:32;99.55;;;29.38;;
73697;SDS011;62004;42.566;23.164;2023-03-25T08:19:58;99.37;;;29.70;;
73697;SDS011;62004;42.566;23.164;2023-03-25T08:22:24;99.10;;;30.08;;
73697;SDS011;62004;42.566;23.164;2023-03-25T08:24:50;98.45;;;29.92;;
73697;SDS011;62004;42.566;23.164;2023-03-25T08:27:16;98.10;;;29.95;;
73697;SDS011;62004;42.566;23.164;2023-03-25T08:29:41;99.25;;;30.25;;
73697;SDS011;62004;42.566;23.164;2023-03-25T08:32:07;99.07;;;29.97;;
73697;SDS011;62004;42.566;23.164;2023-03-25T08:34:32;99.17;;;29.87;;
73697;SDS011;62004;42.566;23.164;2023-03-25T08:37:03;98.95;;;29.77;;
73697;SDS011;62004;42.566;23.164;2023-03-25T08:39:29;99.43;;;30.30;;
73697;SDS011;62004;42.566;23.164;2023-03-25T08:42:00;97.68;;;29.67;;
73697;SDS011;62004;42.566;23.164;2023-03-25T08:44:26;97.00;;;29.83;;
73697;SDS011;62004;42.566;23.164;2023-03-25T08:46:51;97.45;;;29.77;;
73697;SDS011;62004;42.566;23.164;2023-03-25T08:49:16;97.70;;;30.03;;
73697;SDS011;62004;42.566;23.164;2023-03-25T08:51:42;98.87;;;30.20;;
73697;SDS011;62004;42.566;23.164;2023-03-25T08:54:07;98.27;;;29.53;;
73697;SDS011;62004;42.566;23.164;2023-03-25T08:56:33;99.35;;;30.23;;
73697;SDS011;62004;42.566;23.164;2023-03-25T08:58:58;98.43;;;29.23;;
73697;SDS011;62004;42.566;23.164;2023-03-25T09:01:23;98.63;;;29.60;;
73697;SDS011;62004;42.566;23.164;2023-03-25T09:03:48;97.33;;;29.67;;
73697;SDS011;62004;42.566;23.164;2023-03-25T09:06:13;96.53;;;29.87;;
73697;SDS011;62004;42.566;23.164;2023-03-25T09:08:39;96.60;;;30.67;;
73697;SDS011;62004;42.566;23.164;2023-03-25T09:11:04;95.70;;;29.63;;
73697;SDS011;62004;42.566;23.164;2023-03-25T09:13:30;96.13;;;30.77;;
73697;SDS011;62004;42.566;23.164;2023-03-25T09:15:56;95.57;;;30.30;;
73697;SDS011;62004;42.566;23.164;2023-03-25T09:18:21;95.45;;;29.95;;
73697;SDS011;62004;42.566;23.164;2023-03-25T09:20:47;94.50;;;30.20;;
73697;SDS011;62004;42.566;23.164;2023-03-25T09:23:12;95.90;;;30.13;;
73697;SDS011;62004;42.566;23.164;2023-03-25T09:25:38;96.00;;;30.35;;
73697;SDS011;62004;42.566;23.164;2023-03-25T09:28:03;97.10;;;30.33;;
73697;SDS011;62004;42.566;23.164;2023-03-25T09:30:28;97.87;;;30.40;;
73697;SDS011;62004;42.566;23.164;2023-03-25T09:32:53;97.77;;;30.33;;
73697;SDS011;62004;42.566;23.164;2023-03-25T09:35:19;97.40;;;29.77;;
73697;SDS011;62004;42.566;23.164;2023-03-25T09:37:44;96.90;;;29.43;;
73697;SDS011;62004;42.566;23.164;2023-03-25T09:40:11;96.77;;;29.40;;
73697;SDS011;62004;42.566;23.164;2023-03-25T09:50:20;98.50;;;29.90;;
73697;SDS011;62004;42.566;23.164;2023-03-25T09:55:28;98.85;;;29.73;;
73697;SDS011;62004;42.566;23.164;2023-03-25T09:57:56;99.13;;;29.27;;
73697;SDS011;62004;42.566;23.164;2023-03-25T10:00:23;98.82;;;29.27;;
73697;SDS011;62004;42.566;23.164;2023-03-25T10:13:03;101.27;;;29.50;;
73697;SDS011;62004;42.566;23.164;2023-03-25T10:15:33;101.90;;;29.90;;
73697;SDS011;62004;42.566;23.164;2023-03-25T10:20:43;102.32;;;29.67;;
73697;SDS011;62004;42.566;23.164;2023-03-25T10:25:56;102.45;;;29.35;;
73697;SDS011;62004;42.566;23.164;2023-03-25T10:28:26;102.18;;;29.30;;
73697;SDS011;62004;42.566;23.164;2023-03-25T10:30:51;102.80;;;29.40;;
73697;SDS011;62004;42.566;23.164;2023-03-25T10:33:20;103.05;;;29.42;;
73697;SDS011;62004;42.566;23.164;2023-03-25T10:35:48;102.60;;;29.08;;
73697;SDS011;62004;42.566;23.164;2023-03-25T10:38:18;102.22;;;29.30;;
73697;SDS011;62004;42.566;23.164;2023-03-25T10:40:47;102.47;;;29.52;;
73697;SDS011;62004;42.566;23.164;2023-03-25T10:45:40;102.45;;;30.05;;
73697;SDS011;62004;42.566;23.164;2023-03-25T10:48:10;102.35;;;29.30;;
73697;SDS011;62004;42.566;23.164;2023-03-25T10:50:37;103.38;;;30.15;;
73697;SDS011;62004;42.566;23.164;2023-03-25T10:53:03;104.05;;;30.52;;
73697;SDS011;62004;42.566;23.164;2023-03-25T10:55:30;103.37;;;29.47;;
73697;SDS011;62004;42.566;23.164;2023-03-25T10:57:56;103.22;;;30.13;;
73697;SDS011;62004;42.566;23.164;2023-03-25T11:00:22;103.43;;;29.40;;
73697;SDS011;62004;42.566;23.164;2023-03-25T11:02:50;101.20;;;29.02;;
73697;SDS011;62004;42.566;23.164;2023-03-25T11:05:19;101.70;;;29.80;;
73697;SDS011;62004;42.566;23.164;2023-03-25T11:12:44;101.55;;;29.70;;
73697;SDS011;62004;42.566;23.164;2023-03-25T11:15:14;101.25;;;29.70;;
73697;SDS011;62004;42.566;23.164;2023-03-25T11:17:40;99.53;;;29.17;;
73697;SDS011;62004;42.566;23.164;2023-03-25T11:20:06;100.57;;;29.55;;
73697;SDS011;62004;42.566;23.164;2023-03-25T11:22:36;100.63;;;29.50;;
73697;SDS011;62004;42.566;23.164;2023-03-25T11:25:07;99.43;;;29.83;;
73697;SDS011;62004;42.566;23.164;2023-03-25T11:27:43;99.53;;;29.27;;
73697;SDS011;62004;42.566;23.164;2023-03-25T11:30:14;99.07;;;29.58;;
73697;SDS011;62004;42.566;23.164;2023-03-25T11:32:39;98.18;;;29.25;;
73697;SDS011;62004;42.566;23.164;2023-03-25T11:35:16;98.57;;;29.25;;
73697;SDS011;62004;42.566;23.164;2023-03-25T11:37:43;99.47;;;30.58;;
73697;SDS011;62004;42.566;23.164;2023-03-25T11:40:13;100.45;;;29.80;;
73697;SDS011;62004;42.566;23.164;2023-03-25T11:42:40;101.15;;;29.70;;
73697;SDS011;62004;42.566;23.164;2023-03-25T11:45:17;101.38;;;29.27;;
73697;SDS011;62004;42.566;23.164;2023-03-25T11:47:43;102.65;;;30.00;;
73697;SDS011;62004;42.566;23.164;2023-03-25T11:50:16;102.33;;;29.33;;
73697;SDS011;62004;42.566;23.164;2023-03-25T11:52:45;103.38;;;29.40;;
73697;SDS011;62004;42.566;23.164;2023-03-25T11:55:30;103.60;;;29.58;;
73697;SDS011;62004;42.566;23.164;2023-03-25T11:57:57;102.07;;;29.08;;
73697;SDS011;62004;42.566;23.164;2023-03-25T12:03:05;102.78;;;29.63;;
73697;SDS011;62004;42.566;23.164;2023-03-25T12:05:31;102.13;;;29.58;;
73697;SDS011;62004;42.566;23.164;2023-03-25T12:08:02;102.43;;;29.48;;
73697;SDS011;62004;42.566;23.164;2023-03-25T12:16:30;102.07;;;30.00;;
73697;SDS011;62004;42.566;23.164;2023-03-25T12:26:12;99.18;;;28.92;;
73697;SDS011;62004;42.566;23.164;2023-03-25T12:46:45;99.23;;;29.33;;
73697;SDS011;62004;42.566;23.164;2023-03-25T12:54:53;98.72;;;29.50;;
73697;SDS011;62004;42.566;23.164;2023-03-25T13:07:48;99.03;;;29.48;;
73697;SDS011;62004;42.566;23.164;2023-03-25T13:10:19;98.55;;;29.05;;
73697;SDS011;62004;42.566;23.164;2023-03-25T13:12:51;98.18;;;29.35;;
73697;SDS011;62004;42.566;23.164;2023-03-25T13:15:27;96.78;;;29.42;;
73697;SDS011;62004;42.566;23.164;2023-03-25T13:17:56;96.60;;;29.25;;
73697;SDS011;62004;42.566;23.164;2023-03-25T13:20:23;96.47;;;29.67;;
73697;SDS011;62004;42.566;23.164;2023-03-25T13:22:51;96.18;;;30.27;;
73697;SDS011;62004;42.566;23.164;2023-03-25T13:25:28;95.18;;;30.15;;
73697;SDS011;62004;42.566;23.164;2023-03-25T13:27:55;94.03;;;29.55;;
73697;SDS011;62004;42.566;23.164;2023-03-25T13:30:27;93.07;;;30.05;;
73697;SDS011;62004;42.566;23.164;2023-03-25T13:32:53;92.68;;;29.65;;
73697;SDS011;62004;42.566;23.164;2023-03-25T13:35:33;92.28;;;29.65;;
73697;SDS011;62004;42.566;23.164;2023-03-25T13:38:00;91.10;;;29.70;;
73697;SDS011;62004;42.566;23.164;2023-03-25T13:42:57;90.28;;;29.73;;
73697;SDS011;62004;42.566;23.164;2023-03-25T13:45:23;89.70;;;29.30;;
73697;SDS011;62004;42.566;23.164;2023-03-25T13:50:20;89.47;;;28.60;;
73697;SDS011;62004;42.566;23.164;2023-03-25T13:52:48;89.75;;;29.58;;
73697;SDS011;62004;42.566;23.164;2023-03-25T13:55:25;88.28;;;29.27;;
73697;SDS011;62004;42.566;23.164;2023-03-25T14:00:47;86.65;;;30.30;;
73697;SDS011;62004;42.566;23.164;2023-03-25T14:06:39;84.80;;;29.88;;
73697;SDS011;62004;42.566;23.164;2023-03-25T14:13:45;83.95;;;28.80;;
73697;SDS011;62004;42.566;23.164;2023-03-25T14:16:14;84.63;;;29.88;;
73697;SDS011;62004;42.566;23.164;2023-03-25T14:18:41;84.18;;;28.85;;
73697;SDS011;62004;42.566;23.164;2023-03-25T14:21:40;84.15;;;29.30;;
73697;SDS011;62004;42.566;23.164;2023-03-25T14:24:22;83.88;;;29.05;;
73697;SDS011;62004;42.566;23.164;2023-03-25T14:26:54;84.35;;;30.05;;
73697;SDS011;62004;42.566;23.164;2023-03-25T14:32:11;83.78;;;29.20;;
73697;SDS011;62004;42.566;23.164;2023-03-25T14:34:47;83.63;;;29.27;;
73697;SDS011;62004;42.566;23.164;2023-03-25T14:39:50;83.82;;;29.70;;
73697;SDS011;62004;42.566;23.164;2023-03-25T14:47:52;84.15;;;30.08;;
73697;SDS011;62004;42.566;23.164;2023-03-25T14:52:54;83.28;;;28.85;;
73697;SDS011;62004;42.566;23.164;2023-03-25T14:57:45;83.60;;;29.20;;
73697;SDS011;62004;42.566;23.164;2023-03-25T15:00:22;84.25;;;29.55;;
73697;SDS011;62004;42.566;23.164;2023-03-25T15:02:52;83.95;;;29.48;;
73697;SDS011;62004;42.566;23.164;2023-03-25T15:05:26;83.53;;;28.55;;
73697;SDS011;62004;42.566;23.164;2023-03-25T15:07:59;84.07;;;29.20;;
73697;SDS011;62004;42.566;23.164;2023-03-25T15:10:38;84.32;;;29.88;;
73697;SDS011;62004;42.566;23.164;2023-03-25T15:13:05;84.53;;;29.90;;
73697;SDS011;62004;42.566;23.164;2023-03-25T15:17:57;84.47;;;29.02;;
73697;SDS011;62004;42.566;23.164;2023-03-25T15:25:31;85.10;;;29.33;;
73697;SDS011;62004;42.566;23.164;2023-03-25T15:30:31;85.30;;;29.45;;
73697;SDS011;62004;42.566;23.164;2023-03-25T15:33:10;85.22;;;29.38;;
73697;SDS011;62004;42.566;23.164;2023-03-25T15:41:18;85.22;;;29.73;;
73697;SDS011;62004;42.566;23.164;2023-03-25T15:51:45;85.22;;;29.27;;
73697;SDS011;62004;42.566;23.164;2023-03-25T15:54:22;84.93;;;29.15;;
73697;SDS011;62004;42.566;23.164;2023-03-25T15:56:50;84.95;;;28.80;;
73697;SDS011;62004;42.566;23.164;2023-03-25T16:01:42;85.05;;;29.05;;
73697;SDS011;62004;42.566;23.164;2023-03-25T16:04:24;85.38;;;29.65;;
73697;SDS011;62004;42.566;23.164;2023-03-25T16:06:56;85.20;;;28.83;;
73697;SDS011;62004;42.566;23.164;2023-03-25T16:09:23;85.25;;;29.88;;
73697;SDS011;62004;42.566;23.164;2023-03-25T16:11:50;85.05;;;29.70;;
73697;SDS011;62004;42.566;23.164;2023-03-25T16:14:18;84.60;;;28.85;;
73697;SDS011;62004;42.566;23.164;2023-03-25T16:16:46;84.68;;;29.00;;
73697;SDS011;62004;42.566;23.164;2023-03-25T16:19:20;84.40;;;28.85;;
73697;SDS011;62004;42.566;23.164;2023-03-25T16:21:47;84.22;;;28.80;;
73697;SDS011;62004;42.566;23.164;2023-03-25T16:24:13;84.15;;;29.27;;
73697;SDS011;62004;42.566;23.164;2023-03-25T16:26:43;84.53;;;29.80;;
73697;SDS011;62004;42.566;23.164;2023-03-25T16:29:13;84.15;;;29.45;;
73697;SDS011;62004;42.566;23.164;2023-03-25T16:31:40;84.20;;;29.38;;
73697;SDS011;62004;42.566;23.164;2023-03-25T16:34:14;83.93;;;29.02;;
73697;SDS011;62004;42.566;23.164;2023-03-25T16:36:44;84.18;;;29.25;;
73697;SDS011;62004;42.566;23.164;2023-03-25T16:39:13;83.70;;;28.63;;
73697;SDS011;62004;42.566;23.164;2023-03-25T16:41:49;84.00;;;29.38;;
73697;SDS011;62004;42.566;23.164;2023-03-25T16:44:15;83.43;;;28.30;;
73697;SDS011;62004;42.566;23.164;2023-03-25T16:46:42;83.63;;;28.95;;
73697;SDS011;62004;42.566;23.164;2023-03-25T16:49:10;84.03;;;29.17;;
73697;SDS011;62004;42.566;23.164;2023-03-25T16:51:39;84.07;;;29.38;;
73697;SDS011;62004;42.566;23.164;2023-03-25T16:54:08;83.93;;;29.17;;
73697;SDS011;62004;42.566;23.164;2023-03-25T17:01:25;83.85;;;29.17;;
73697;SDS011;62004;42.566;23.164;2023-03-25T17:03:54;83.97;;;29.08;;
73697;SDS011;62004;42.566;23.164;2023-03-25T17:06:29;83.20;;;28.05;;
73697;SDS011;62004;42.566;23.164;2023-03-25T17:08:59;83.50;;;28.65;;
73697;SDS011;62004;42.566;23.164;2023-03-25T17:11:26;83.15;;;28.55;;
73697;SDS011;62004;42.566;23.164;2023-03-25T17:13:53;83.15;;;28.85;;
73697;SDS011;62004;42.566;23.164;2023-03-25T17:16:25;83.10;;;28.60;;